Plaza, Washington
Current Conditions -  °F | °C
As of 12:53 PM on Friday 19 Dec 2014 (Local Time) from KGEG Reporting Station
Broken Clouds Broken Clouds  
Wind Chill:   Ceiling: 1300
Heat Index:   Visibility: 10mi
Dew Point:   Wind: 16mph
Humidity: 89%   Direction: 210°SSW
Pressure: 29.89"   Gusts: 23mph
Location:  47.2196°N, 117.453°W
Report Text: KGEG 192053Z 21014G20KT 10SM BKN013 BKN110 05/03 A2989 RMK AO2 SLP132 60000 T00500033 53004
Loading
Personal Weather Stations






























Interactive Weather Map New forecast layout! Learn more

10-Day Weather Forecast

Advertisements
Track Severe Weather on mobile